createdAt,value
2017-10-13T00:01:25.158Z,2.33
2017-10-13T00:03:51.403Z,2.63
2017-10-13T00:06:17.622Z,2.40
2017-10-13T00:08:43.857Z,2.83
2017-10-13T00:11:10.079Z,3.33
2017-10-13T00:13:36.337Z,3.30
2017-10-13T00:16:02.554Z,2.13
2017-10-13T00:18:28.789Z,2.60
2017-10-13T00:20:55.060Z,2.80
2017-10-13T00:23:21.288Z,3.40
2017-10-13T00:25:47.509Z,2.57
2017-10-13T00:28:13.748Z,3.20
2017-10-13T00:30:40.729Z,2.37
2017-10-13T00:33:07.061Z,2.87
2017-10-13T00:35:33.282Z,2.87
2017-10-13T00:37:59.557Z,2.57
2017-10-13T00:40:25.777Z,3.10
2017-10-13T00:42:52.009Z,2.13
2017-10-13T00:45:18.262Z,2.40
2017-10-13T00:47:44.517Z,2.53
2017-10-13T00:50:10.761Z,2.07
2017-10-13T00:52:37.004Z,2.50
2017-10-13T00:55:03.273Z,2.53
2017-10-13T00:57:29.536Z,2.30
2017-10-13T00:59:55.789Z,2.67
2017-10-13T01:02:22.766Z,2.67
2017-10-13T01:04:49.017Z,2.87
2017-10-13T01:07:15.989Z,3.40
2017-10-13T01:09:42.265Z,2.60
2017-10-13T01:12:08.490Z,2.70
2017-10-13T01:14:34.745Z,2.40
2017-10-13T01:17:01.717Z,2.30
2017-10-13T01:19:28.318Z,2.43
2017-10-13T01:21:54.551Z,2.80
2017-10-13T01:24:20.777Z,3.00
2017-10-13T01:26:47.029Z,3.30
2017-10-13T01:29:14.017Z,2.57
2017-10-13T01:31:40.321Z,2.47
2017-10-13T01:34:06.561Z,2.87
2017-10-13T01:36:32.809Z,2.93
2017-10-13T01:38:59.049Z,2.43
2017-10-13T01:41:25.301Z,2.40
2017-10-13T01:43:51.552Z,2.30
2017-10-13T01:46:17.850Z,2.23
2017-10-13T01:48:44.081Z,2.50
2017-10-13T01:51:10.360Z,2.70
2017-10-13T01:53:36.584Z,2.67
2017-10-13T01:56:02.930Z,3.10
2017-10-13T01:58:29.169Z,2.77
2017-10-13T02:00:55.433Z,2.30
2017-10-13T02:03:21.677Z,3.27
2017-10-13T02:05:48.633Z,2.30
2017-10-13T02:08:14.878Z,2.30
2017-10-13T02:10:41.121Z,3.60
2017-10-13T02:13:07.378Z,2.30
2017-10-13T02:15:33.618Z,2.97
2017-10-13T02:18:00.602Z,2.43
2017-10-13T02:20:26.882Z,3.43
2017-10-13T02:22:53.137Z,2.93
2017-10-13T02:25:20.105Z,2.60
2017-10-13T02:27:46.337Z,2.67
2017-10-13T02:30:12.618Z,2.67
2017-10-13T02:32:39.126Z,2.50
2017-10-13T02:35:05.385Z,2.60
2017-10-13T02:37:31.612Z,2.73
2017-10-13T02:39:57.865Z,3.03
2017-10-13T02:42:24.857Z,2.63
2017-10-13T02:44:51.156Z,3.13
2017-10-13T02:47:17.500Z,2.80
2017-10-13T02:49:43.737Z,2.67
2017-10-13T02:52:09.966Z,2.90
2017-10-13T02:54:36.236Z,2.67
2017-10-13T02:57:02.476Z,3.13
2017-10-13T02:59:29.525Z,4.13
2017-10-13T03:01:56.482Z,3.60
2017-10-13T03:04:23.482Z,3.93
2017-10-13T03:06:49.720Z,2.97
2017-10-13T03:09:15.941Z,3.50
2017-10-13T03:11:42.224Z,3.00
2017-10-13T03:14:08.425Z,3.30
2017-10-13T03:16:35.418Z,2.97
2017-10-13T03:19:01.649Z,4.10
2017-10-13T03:21:27.905Z,2.50
2017-10-13T03:23:54.125Z,4.03
2017-10-13T03:26:20.360Z,2.60
2017-10-13T03:28:46.569Z,3.50
2017-10-13T03:31:12.823Z,3.00
2017-10-13T03:33:39.045Z,2.80
2017-10-13T03:36:05.284Z,3.07
2017-10-13T03:38:31.497Z,3.73
2017-10-13T03:40:57.731Z,2.60
2017-10-13T03:43:24.037Z,3.57
2017-10-13T03:45:50.284Z,2.87
2017-10-13T03:48:16.522Z,3.27
2017-10-13T03:50:42.773Z,3.83
2017-10-13T03:53:09.737Z,3.23
2017-10-13T03:55:36.017Z,3.07
2017-10-13T03:58:02.258Z,2.80
2017-10-13T04:00:28.509Z,2.33
2017-10-13T04:02:55.472Z,3.47
2017-10-13T04:05:21.733Z,3.23
2017-10-13T04:07:47.945Z,3.07
2017-10-13T04:10:14.182Z,3.70
2017-10-13T04:12:40.497Z,3.70
2017-10-13T04:15:06.753Z,3.83
2017-10-13T04:17:32.972Z,3.87
2017-10-13T04:19:59.317Z,3.43
2017-10-13T04:22:25.581Z,3.40
2017-10-13T04:24:52.542Z,3.50
2017-10-13T04:27:19.525Z,3.00
2017-10-13T04:29:45.760Z,3.67
2017-10-13T04:32:11.988Z,4.00
2017-10-13T04:34:38.225Z,3.40
2017-10-13T04:37:04.489Z,3.80
2017-10-13T04:39:30.713Z,3.40
2017-10-13T04:41:57.765Z,3.80
2017-10-13T04:44:24.717Z,3.50
2017-10-13T04:46:51.733Z,4.37
2017-10-13T04:49:18.066Z,4.83
2017-10-13T04:51:44.277Z,4.90
2017-10-13T04:54:10.614Z,4.20
2017-10-13T04:56:36.837Z,5.47
2017-10-13T04:59:03.069Z,5.13
2017-10-13T05:01:29.286Z,5.80
2017-10-13T05:03:55.536Z,6.27
2017-10-13T05:06:21.789Z,5.63
2017-10-13T05:08:48.773Z,4.70
2017-10-13T05:11:14.963Z,5.50
2017-10-13T05:13:41.934Z,6.37
2017-10-13T05:16:08.121Z,5.87
2017-10-13T05:18:34.449Z,5.20
2017-10-13T05:21:00.624Z,5.57
2017-10-13T05:23:26.838Z,5.37
2017-10-13T05:25:53.029Z,5.80
2017-10-13T05:28:19.273Z,6.17
2017-10-13T05:30:46.241Z,5.70
2017-10-13T05:33:12.445Z,6.33
2017-10-13T05:35:39.377Z,6.13
2017-10-13T05:38:05.623Z,7.07
2017-10-13T05:40:32.569Z,5.93
2017-10-13T05:42:58.797Z,5.90
2017-10-13T05:45:25.781Z,5.73
2017-10-13T05:47:51.989Z,7.03
2017-10-13T05:50:18.203Z,5.90
2017-10-13T05:52:45.412Z,5.60
2017-10-13T05:55:11.601Z,5.67
2017-10-13T05:57:38.078Z,6.13
2017-10-13T06:00:04.342Z,7.70
2017-10-13T06:02:31.332Z,5.93
2017-10-13T06:04:57.564Z,5.97
2017-10-13T06:07:23.837Z,6.87
2017-10-13T06:09:50.069Z,5.37
2017-10-13T06:12:17.073Z,6.47
2017-10-13T06:14:43.290Z,7.60
2017-10-13T06:17:09.488Z,7.00
2017-10-13T06:19:36.432Z,6.50
2017-10-13T06:22:02.613Z,6.40
2017-10-13T06:24:28.824Z,5.90
2017-10-13T06:26:55.017Z,6.10
2017-10-13T06:29:21.245Z,5.60
2017-10-13T06:31:47.697Z,5.90
2017-10-13T06:34:13.889Z,6.30
2017-10-13T06:36:40.842Z,8.37
2017-10-13T06:39:07.801Z,9.13
2017-10-13T06:41:34.000Z,6.50
2017-10-13T06:44:00.237Z,6.77
2017-10-13T06:46:27.219Z,6.60
2017-10-13T06:48:53.468Z,8.87
2017-10-13T06:51:19.681Z,6.60
2017-10-13T06:53:46.075Z,6.53
2017-10-13T06:56:13.040Z,7.10
2017-10-13T06:58:39.273Z,6.47
2017-10-13T07:01:05.472Z,6.93
2017-10-13T07:03:32.457Z,8.07
2017-10-13T07:05:59.048Z,6.67
2017-10-13T07:08:25.265Z,6.30
2017-10-13T07:10:51.478Z,6.70
2017-10-13T07:13:17.718Z,7.10
2017-10-13T07:15:44.037Z,6.20
2017-10-13T07:18:11.013Z,6.50
2017-10-13T07:20:38.045Z,6.60
2017-10-13T07:23:04.285Z,7.60
2017-10-13T07:25:31.222Z,6.80
2017-10-13T07:27:57.478Z,7.07
2017-10-13T07:30:23.699Z,6.93
2017-10-13T07:32:50.672Z,6.10
2017-10-13T07:35:16.861Z,7.00
2017-10-13T07:37:43.077Z,6.43
2017-10-13T07:40:09.273Z,7.10
2017-10-13T07:42:35.910Z,6.83
2017-10-13T07:45:02.139Z,6.67
2017-10-13T07:47:28.332Z,6.40
2017-10-13T07:49:54.541Z,7.07
2017-10-13T07:52:33.422Z,6.80
2017-10-13T07:54:59.614Z,7.37
2017-10-13T07:57:25.828Z,6.47
2017-10-13T07:59:52.757Z,6.30
2017-10-13T08:02:18.977Z,6.53
2017-10-13T08:04:45.166Z,6.30
2017-10-13T08:07:11.356Z,6.50
2017-10-13T08:09:38.301Z,6.33
2017-10-13T08:12:04.585Z,6.07
2017-10-13T08:14:30.800Z,7.20
2017-10-13T08:16:56.985Z,8.03
2017-10-13T08:19:23.947Z,7.37
2017-10-13T08:21:50.150Z,6.83
2017-10-13T08:24:17.113Z,6.87
2017-10-13T08:26:45.132Z,7.10
2017-10-13T08:29:11.365Z,6.83
2017-10-13T08:31:37.602Z,6.13
2017-10-13T08:34:03.845Z,5.97
2017-10-13T08:36:30.054Z,5.60
2017-10-13T08:38:57.766Z,6.63
2017-10-13T08:41:24.028Z,8.70
2017-10-13T08:43:50.241Z,7.60
2017-10-13T08:46:16.445Z,6.60
2017-10-13T08:48:43.378Z,6.53
2017-10-13T08:51:10.333Z,5.90
2017-10-13T08:53:37.525Z,6.93
2017-10-13T08:56:03.741Z,6.47
2017-10-13T08:58:29.920Z,8.63
2017-10-13T09:00:56.133Z,6.90
2017-10-13T09:03:22.348Z,7.20
2017-10-13T09:05:48.620Z,7.50
2017-10-13T09:08:16.080Z,7.70
2017-10-13T09:10:43.040Z,5.87
2017-10-13T09:13:09.249Z,7.33
2017-10-13T09:15:36.245Z,6.80
2017-10-13T09:18:02.504Z,6.57
2017-10-13T09:20:28.705Z,6.30
2017-10-13T09:22:55.897Z,6.37
2017-10-13T09:25:22.860Z,6.23
2017-10-13T09:27:49.062Z,5.97
2017-10-13T09:30:15.301Z,5.77
2017-10-13T09:32:42.298Z,6.70
2017-10-13T09:35:08.615Z,6.37
2017-10-13T09:37:34.824Z,5.17
2017-10-13T09:40:01.103Z,6.47
2017-10-13T09:42:27.385Z,5.40
2017-10-13T09:44:53.665Z,5.70
2017-10-13T09:47:19.897Z,5.00
2017-10-13T09:49:46.137Z,5.90
2017-10-13T09:52:12.436Z,5.33
2017-10-13T09:54:38.646Z,6.40
2017-10-13T09:57:04.854Z,6.13
2017-10-13T09:59:31.098Z,5.03
2017-10-13T10:01:57.297Z,5.53
2017-10-13T10:04:23.538Z,3.50
2017-10-13T10:06:49.747Z,4.90
2017-10-13T10:09:15.958Z,4.43
2017-10-13T10:11:42.154Z,4.50
2017-10-13T10:14:08.359Z,4.03
2017-10-13T10:16:34.586Z,4.73
2017-10-13T10:19:00.777Z,4.93
2017-10-13T10:21:27.801Z,5.60
2017-10-13T10:23:54.036Z,4.10
2017-10-13T10:26:20.218Z,4.50
2017-10-13T10:28:46.405Z,5.07
2017-10-13T10:31:13.385Z,4.23
2017-10-13T10:33:39.594Z,5.50
2017-10-13T10:36:06.626Z,3.70
2017-10-13T10:38:34.107Z,3.77
2017-10-13T10:41:00.857Z,3.57
2017-10-13T10:43:27.088Z,4.97
2017-10-13T10:45:53.376Z,4.20
2017-10-13T10:48:19.592Z,4.90
2017-10-13T10:50:45.877Z,4.33
2017-10-13T10:53:12.061Z,3.67
2017-10-13T10:55:38.333Z,3.10
2017-10-13T10:58:04.522Z,4.60
2017-10-13T11:00:30.748Z,4.27
2017-10-13T11:02:56.932Z,4.33
2017-10-13T11:05:23.166Z,4.10
2017-10-13T11:07:49.425Z,4.57
2017-10-13T11:10:15.685Z,3.90
2017-10-13T11:12:41.937Z,4.47
2017-10-13T11:15:08.186Z,4.93
2017-10-13T11:17:34.393Z,3.83
2017-10-13T11:20:00.633Z,3.40
2017-10-13T11:22:26.825Z,4.27
2017-10-13T11:24:53.792Z,3.30
2017-10-13T11:27:20.000Z,3.73
2017-10-13T11:29:46.997Z,3.83
2017-10-13T11:32:13.581Z,3.80
2017-10-13T11:34:39.874Z,4.27
2017-10-13T11:37:06.076Z,4.20
2017-10-13T11:39:32.370Z,3.73
2017-10-13T11:41:59.299Z,3.80
2017-10-13T11:44:26.278Z,3.77
2017-10-13T11:46:52.469Z,4.00
2017-10-13T11:49:19.483Z,4.13
2017-10-13T11:51:45.921Z,3.87
2017-10-13T11:54:12.129Z,4.97
2017-10-13T11:56:38.301Z,4.93
2017-10-13T11:59:05.261Z,4.70
2017-10-13T12:01:31.485Z,4.60
2017-10-13T12:03:58.433Z,5.73
2017-10-13T12:06:25.354Z,4.43
2017-10-13T12:08:52.309Z,4.47
2017-10-13T12:11:18.484Z,3.83
2017-10-13T12:13:44.691Z,4.70
2017-10-13T12:16:10.881Z,4.20
2017-10-13T12:18:37.084Z,4.37
2017-10-13T12:21:03.586Z,4.73
2017-10-13T12:23:29.810Z,4.83
2017-10-13T12:25:55.997Z,4.03
2017-10-13T12:28:22.203Z,4.53
2017-10-13T12:30:48.425Z,4.10
2017-10-13T12:33:14.605Z,4.13
2017-10-13T12:35:41.545Z,3.90
2017-10-13T12:38:08.473Z,4.73
2017-10-13T12:40:34.701Z,4.17
2017-10-13T12:43:00.890Z,4.63
2017-10-13T12:45:27.084Z,4.27
2017-10-13T12:47:54.041Z,4.47
2017-10-13T12:50:20.237Z,4.30
2017-10-13T12:52:46.421Z,4.00
2017-10-13T12:55:12.649Z,4.10
2017-10-13T12:57:38.854Z,3.70
2017-10-13T13:00:05.069Z,4.53
2017-10-13T13:02:31.982Z,3.80
2017-10-13T13:04:58.205Z,4.47
2017-10-13T13:07:24.394Z,4.27
2017-10-13T13:09:50.597Z,4.80
2017-10-13T13:12:17.521Z,3.87
2017-10-13T13:14:43.737Z,4.20
2017-10-13T13:17:09.952Z,4.60
2017-10-13T13:19:36.180Z,4.80
2017-10-13T13:22:02.401Z,4.13
2017-10-13T13:24:28.588Z,4.33
2017-10-13T13:26:54.848Z,3.80
2017-10-13T13:29:21.052Z,3.97
2017-10-13T13:31:47.257Z,4.00
2017-10-13T13:34:14.229Z,4.40
2017-10-13T13:36:40.432Z,4.33
2017-10-13T13:39:07.429Z,4.30
2017-10-13T13:41:33.662Z,3.90
2017-10-13T13:43:59.881Z,4.73
2017-10-13T13:46:26.115Z,4.20
2017-10-13T13:48:52.291Z,4.70
2017-10-13T13:51:19.248Z,4.50
2017-10-13T13:53:45.425Z,3.90
2017-10-13T13:56:11.632Z,4.37
2017-10-13T13:58:37.825Z,4.53
2017-10-13T14:01:04.873Z,4.53
2017-10-13T14:03:31.049Z,3.90
2017-10-13T14:05:57.286Z,5.70
2017-10-13T14:08:23.481Z,4.23
2017-10-13T14:10:49.733Z,4.50
2017-10-13T14:13:15.965Z,4.53
2017-10-13T14:15:42.187Z,4.30
2017-10-13T14:18:08.365Z,3.90
2017-10-13T14:20:35.312Z,4.30
2017-10-13T14:23:02.274Z,3.70
2017-10-13T14:25:28.546Z,4.90
2017-10-13T14:27:54.765Z,4.93
2017-10-13T14:30:21.084Z,4.10
2017-10-13T14:32:47.285Z,4.47
2017-10-13T14:35:13.574Z,4.63
2017-10-13T14:37:39.773Z,5.87
2017-10-13T14:40:06.107Z,5.20
2017-10-13T14:42:33.051Z,4.57
2017-10-13T14:44:59.277Z,5.70
2017-10-13T14:47:25.468Z,5.67
2017-10-13T14:49:51.697Z,5.37
2017-10-13T14:52:18.135Z,6.20
2017-10-13T14:54:44.452Z,5.10
2017-10-13T14:57:10.653Z,6.10
2017-10-13T14:59:36.858Z,6.47
2017-10-13T15:02:03.189Z,6.43
2017-10-13T15:04:29.428Z,6.80
2017-10-13T15:06:55.609Z,6.97
2017-10-13T15:09:21.781Z,6.77
2017-10-13T15:11:47.986Z,7.13
2017-10-13T15:14:14.188Z,6.70
2017-10-13T15:16:41.252Z,7.30
2017-10-13T15:19:07.425Z,7.10
2017-10-13T15:21:33.652Z,6.97
2017-10-13T15:24:00.297Z,8.83
2017-10-13T15:26:31.216Z,7.97
2017-10-13T15:29:03.517Z,7.10
2017-10-13T15:31:36.494Z,7.70
2017-10-13T15:34:09.441Z,8.43
2017-10-13T15:36:35.683Z,8.27
2017-10-13T15:39:07.869Z,8.60
2017-10-13T15:41:40.287Z,7.00
2017-10-13T15:44:12.597Z,8.40
2017-10-13T15:46:44.897Z,9.67
2017-10-13T15:49:17.864Z,7.60
2017-10-13T15:51:50.153Z,9.13
2017-10-13T15:54:17.093Z,9.83
2017-10-13T15:56:44.264Z,9.43
2017-10-13T15:59:10.546Z,8.10
2017-10-13T16:01:36.775Z,10.00
2017-10-13T16:04:02.965Z,11.13
2017-10-13T16:06:29.217Z,9.03
2017-10-13T16:08:56.174Z,9.90
2017-10-13T16:11:22.394Z,10.10
2017-10-13T16:13:48.618Z,9.60
2017-10-13T16:16:14.825Z,11.80
2017-10-13T16:18:41.077Z,10.53
2017-10-13T16:21:07.269Z,10.73
2017-10-13T16:23:33.482Z,10.33
2017-10-13T16:26:00.418Z,12.63
2017-10-13T16:28:27.378Z,10.80
2017-10-13T16:30:53.590Z,12.37
2017-10-13T16:33:20.555Z,11.20
2017-10-13T16:35:46.744Z,12.37
2017-10-13T16:38:12.954Z,10.37
2017-10-13T16:40:39.140Z,10.90
2017-10-13T16:43:05.449Z,11.33
2017-10-13T16:45:32.373Z,14.07
2017-10-13T16:47:58.614Z,13.93
2017-10-13T16:50:24.826Z,14.40
2017-10-13T16:52:51.054Z,25.60
2017-10-13T16:55:17.261Z,16.23
2017-10-13T16:57:43.461Z,12.50
2017-10-13T17:00:09.649Z,17.20
2017-10-13T17:02:35.849Z,13.13
2017-10-13T17:05:02.041Z,13.90
2017-10-13T17:07:28.265Z,14.70
2017-10-13T17:09:54.487Z,17.30
2017-10-13T17:12:21.443Z,29.50
2017-10-13T17:14:47.620Z,21.37
2017-10-13T17:17:13.837Z,16.67
2017-10-13T17:19:40.062Z,12.80
2017-10-13T17:22:06.299Z,12.13
2017-10-13T17:24:32.495Z,13.00
2017-10-13T17:26:58.690Z,13.43
2017-10-13T17:29:25.653Z,15.50
2017-10-13T17:31:51.830Z,11.23
2017-10-13T17:34:18.068Z,13.90
2017-10-13T17:36:44.254Z,13.27
2017-10-13T17:39:10.466Z,12.27
2017-10-13T17:41:36.662Z,11.47
2017-10-13T17:44:03.606Z,13.77
2017-10-13T17:46:29.786Z,12.43
2017-10-13T17:48:55.998Z,13.70
2017-10-13T17:51:22.184Z,15.27
2017-10-13T17:53:48.385Z,15.27
2017-10-13T17:56:14.575Z,14.93
2017-10-13T17:58:40.790Z,15.20
2017-10-13T18:01:06.985Z,14.33
2017-10-13T18:03:33.219Z,21.93
2017-10-13T18:05:59.430Z,18.03
2017-10-13T18:08:26.354Z,17.90
2017-10-13T18:10:52.552Z,21.60
2017-10-13T18:13:18.736Z,17.60
2017-10-13T18:15:44.945Z,15.47
2017-10-13T18:18:11.136Z,20.80
2017-10-13T18:20:37.357Z,21.00
2017-10-13T18:23:04.301Z,17.03
2017-10-13T18:25:30.506Z,16.63
2017-10-13T18:27:56.701Z,15.40
2017-10-13T18:30:22.947Z,15.30
2017-10-13T18:32:49.117Z,26.03
2017-10-13T18:35:15.349Z,15.60
2017-10-13T18:37:41.529Z,16.50
2017-10-13T18:40:07.726Z,16.33
2017-10-13T18:42:33.929Z,15.33
2017-10-13T18:45:00.118Z,16.60
2017-10-13T18:47:26.325Z,23.30
2017-10-13T18:49:52.513Z,17.20
2017-10-13T18:52:18.726Z,16.67
2017-10-13T18:54:45.667Z,15.83
2017-10-13T18:57:12.634Z,16.73
2017-10-13T18:59:38.847Z,17.10
2017-10-13T19:02:05.073Z,16.10
2017-10-13T19:04:32.001Z,22.70
2017-10-13T19:06:58.974Z,17.10
2017-10-13T19:09:25.162Z,21.03
2017-10-13T19:11:51.345Z,19.40
2017-10-13T19:14:17.550Z,20.00
2017-10-13T19:16:44.687Z,20.93
2017-10-13T19:19:11.629Z,16.20
2017-10-13T19:21:38.557Z,17.90
2017-10-13T19:24:04.773Z,16.57
2017-10-13T19:26:30.981Z,17.57
2017-10-13T19:28:57.218Z,18.90
2017-10-13T19:31:24.186Z,17.80
2017-10-13T19:33:50.393Z,17.27
2017-10-13T19:36:16.589Z,18.07
2017-10-13T19:38:42.784Z,17.80
2017-10-13T19:41:09.709Z,16.53
2017-10-13T19:43:35.938Z,17.03
2017-10-13T19:46:02.130Z,17.23
2017-10-13T19:48:28.354Z,17.30
2017-10-13T19:50:54.553Z,17.20
2017-10-13T19:53:21.531Z,18.17
2017-10-13T19:55:47.737Z,15.80
2017-10-13T19:58:13.947Z,17.80
2017-10-13T20:00:40.871Z,18.73
2017-10-13T20:03:07.085Z,17.67
2017-10-13T20:05:33.273Z,19.03
2017-10-13T20:07:59.516Z,16.90
2017-10-13T20:10:25.721Z,20.53
2017-10-13T20:12:51.952Z,17.73
2017-10-13T20:15:18.226Z,19.00
2017-10-13T20:17:44.466Z,18.13
2017-10-13T20:20:10.671Z,17.57
2017-10-13T20:22:36.858Z,18.30
2017-10-13T20:25:03.089Z,17.63
2017-10-13T20:27:29.272Z,18.40
2017-10-13T20:29:55.506Z,15.53
2017-10-13T20:32:21.709Z,17.20
2017-10-13T20:34:47.917Z,17.63
2017-10-13T20:37:14.102Z,18.30
2017-10-13T20:39:40.331Z,20.60
2017-10-13T20:42:06.522Z,18.60
2017-10-13T20:44:32.735Z,21.00
2017-10-13T20:46:58.937Z,19.70
2017-10-13T20:49:25.157Z,20.97
2017-10-13T20:51:52.120Z,18.67
2017-10-13T20:54:18.345Z,22.93
2017-10-13T20:56:44.562Z,23.37
2017-10-13T20:59:10.786Z,20.27
2017-10-13T21:01:37.719Z,20.53
2017-10-13T21:04:04.669Z,23.20
2017-10-13T21:06:31.610Z,18.13
2017-10-13T21:08:58.581Z,22.47
2017-10-13T21:11:25.011Z,20.30
2017-10-13T21:13:51.295Z,21.50
2017-10-13T21:16:17.493Z,22.30
2017-10-13T21:18:43.764Z,23.97
2017-10-13T21:21:10.037Z,23.67
2017-10-13T21:23:36.284Z,22.30
2017-10-13T21:26:02.491Z,23.20
2017-10-13T21:28:28.942Z,22.33
2017-10-13T21:30:55.150Z,23.13
2017-10-13T21:33:21.437Z,24.33
2017-10-13T21:35:47.623Z,23.07
2017-10-13T21:38:13.861Z,23.70
2017-10-13T21:40:40.053Z,23.90
2017-10-13T21:43:06.281Z,25.33
2017-10-13T21:45:33.214Z,25.77
2017-10-13T21:48:00.200Z,25.17
2017-10-13T21:50:26.385Z,23.37
2017-10-13T21:52:53.358Z,25.27
2017-10-13T21:55:30.444Z,25.87
2017-10-13T21:57:56.650Z,23.30
2017-10-13T22:00:23.635Z,26.27
2017-10-13T22:02:49.851Z,25.00
2017-10-13T22:05:16.047Z,25.40
2017-10-13T22:07:43.231Z,25.13
2017-10-13T22:10:09.458Z,25.57
2017-10-13T22:12:35.715Z,24.83
2017-10-13T22:15:02.171Z,23.87
2017-10-13T22:17:28.377Z,25.33
2017-10-13T22:19:54.601Z,26.40
2017-10-13T22:22:20.785Z,25.00
2017-10-13T22:24:46.996Z,23.57
2017-10-13T22:27:13.978Z,23.33
2017-10-13T22:29:40.211Z,24.07
2017-10-13T22:32:06.542Z,25.37
2017-10-13T22:34:32.762Z,24.87
2017-10-13T22:36:58.946Z,24.60
2017-10-13T22:39:25.153Z,24.27
2017-10-13T22:41:51.382Z,23.53
2017-10-13T22:44:17.605Z,25.30
2017-10-13T22:46:43.857Z,25.53
2017-10-13T22:49:10.052Z,23.60
2017-10-13T22:51:36.328Z,25.63
2017-10-13T22:54:03.366Z,23.97
2017-10-13T22:56:30.318Z,25.30
2017-10-13T22:58:57.238Z,23.97
2017-10-13T23:01:23.457Z,26.47
2017-10-13T23:03:50.393Z,26.17
2017-10-13T23:06:16.601Z,25.27
2017-10-13T23:08:42.797Z,25.30
2017-10-13T23:11:09.761Z,25.70
2017-10-13T23:13:35.949Z,25.53
2017-10-13T23:16:02.180Z,25.60
2017-10-13T23:18:28.384Z,25.53
2017-10-13T23:20:54.621Z,25.70
2017-10-13T23:23:20.804Z,25.87
2017-10-13T23:25:46.981Z,24.40
2017-10-13T23:28:13.186Z,24.83
2017-10-13T23:30:39.406Z,24.77
2017-10-13T23:33:06.362Z,23.90
2017-10-13T23:35:33.306Z,25.40
2017-10-13T23:37:59.541Z,25.57
2017-10-13T23:40:25.743Z,24.30
2017-10-13T23:42:51.955Z,24.50
2017-10-13T23:45:18.249Z,23.60
2017-10-13T23:47:44.516Z,22.77
2017-10-13T23:50:10.708Z,23.67
2017-10-13T23:52:37.670Z,24.10
2017-10-13T23:55:04.650Z,26.00
2017-10-13T23:57:30.873Z,25.83
2017-10-13T23:59:57.089Z,23.57
